Platzwetter Flugplatz Wels

Flugwetter Linz LOWL

[Quelle: ADDS]
METAR
LOWL 191250Z 25006KT 210V300 9999 FEW060 FEW060CB SCT190 29/14 Q1011 NOSIG =
LOWL 191115Z 1912/2012 28004KT 9999 FEW050 TX30/1914Z TN16/2003Z TEMPO 1912/1917 VRB08KT FEW060CB BKN150 BECMG 2010/2012 FEW050CB
TAF
LOWL 191115Z 1912/2012 28004KT 9999 FEW050 TX30/1914Z TN16/2003Z TEMPO 1912/1917 VRB08KT FEW060CB BKN150 BECMG 2010/2012 FEW050CB =

Flugwetter Salzburg LOWS

[Quelle: ADDS]
METAR
LOWS 191250Z 31005KT 250V360 9999 FEW060 FEW060CB SCT130 28/14 Q1012 NOSIG =
LOWS 191115Z 1912/2012 34006KT 9999 FEW060 SCT140 BKN300 TX27/1914ZTN17/2003Z TEMPO 1912/1918 FEW050CB SCT060 BKN250 PROB30 TEMPO 1912/1918 TS BECMG 1918/1920 15005KT TEMPO 2002/2006 16010KT CAVOK BECMG 2006/2008 34007KT SCT050 BKN250 PROB40 TEMPO 2008/2010 32015G25KT
TAF
LOWS 191115Z 1912/2012 34006KT 9999 FEW060 SCT140 BKN300 TX27/1914ZTN17/2003Z TEMPO 1912/1918 FEW050CB SCT060 BKN250 PROB30 TEMPO 1912/1918 TS BECMG 1918/1920 15005KT TEMPO 2002/2006 16010KT CAVOK BECMG 2006/2008 34007KT SCT050 BKN250 PROB40 TEMPO 2008/2010 32015G25KT =

Wind - Verlauf

Windrichtung - Verlauf

Temperatur - Verlauf

Relative Luftfeuchtigkeit - Verlauf

Luftdruck - Verlauf


Pilot für einen Tag - Erfülle Dir den Traum vom Fliegen!

Werde einen Tag lang Pilot bei und mit dem Fliegerclub Weiße Möwe in Wels!

Stadt - Wels

Ausflugsziele & Sehenswürdigkeiten
in Wels und Umgebung

JU-52

JU-52 Rundflüge.
Aktuelle Infos & News.

Cookies erleichtern die Bereitstellung unserer Dienste. Mit der Nutzung unserer Dienste erklären Sie sich damit einverstanden, dass wir Cookies verwenden.
Weitere Informationen Ok